Time;durP1;ratioP1;P1;durP2;ratioP2;P2;SDS_P1;SDS_P2;PMS_P1;PMS_P2;Temp;Humidity;BMP_temperature;BMP_pressure;BME280_temperature;BME280_humidity;BME280_pressure;Samples;Min_cycle;Max_cycle;Signal;HPM_P1;HPM_P2
2023/04/28 00:00:50;;;;;;;12.60;8.45;;;7.90;99.90;;;;;;5047125;28;20040;-62
2023/04/28 00:03:16;;;;;;;12.35;8.23;;;7.80;99.90;;;;;;5049335;28;21001;-64
2023/04/28 00:05:41;;;;;;;10.05;8.45;;;7.80;99.90;;;;;;5041305;28;20123;-63
2023/04/28 00:08:07;;;;;;;15.70;8.65;;;7.80;99.90;;;;;;5038979;28;20948;-63
2023/04/28 00:10:33;;;;;;;12.15;8.68;;;7.80;99.90;;;;;;5039396;28;20044;-62
2023/04/28 00:12:59;;;;;;;12.98;8.80;;;7.80;99.90;;;;;;5046172;28;20114;-63
2023/04/28 00:15:25;;;;;;;11.23;8.80;;;7.80;99.90;;;;;;5042870;28;20032;-63
2023/04/28 00:17:51;;;;;;;13.10;9.52;;;7.80;99.90;;;;;;5044907;28;20048;-62
2023/04/28 00:20:17;;;;;;;13.52;9.70;;;7.80;99.90;;;;;;5050669;28;20064;-64
2023/04/28 00:22:42;;;;;;;13.18;8.85;;;7.70;99.90;;;;;;5046611;28;20888;-64
2023/04/28 00:25:08;;;;;;;12.10;8.32;;;7.70;99.90;;;;;;5035083;28;20021;-64
2023/04/28 00:27:35;;;;;;;11.27;9.15;;;7.70;99.90;;;;;;5045241;28;20083;-63
2023/04/28 00:30:01;;;;;;;11.57;9.05;;;7.70;99.90;;;;;;5039092;28;20044;-64
2023/04/28 00:32:27;;;;;;;14.18;9.02;;;7.60;99.90;;;;;;5044615;28;20044;-64
2023/04/28 00:34:53;;;;;;;14.20;9.65;;;7.60;99.90;;;;;;5036946;28;20041;-65
2023/04/28 00:37:19;;;;;;;14.18;10.15;;;7.60;99.90;;;;;;5034076;28;20049;-64
2023/04/28 00:39:46;;;;;;;13.88;9.60;;;7.60;99.90;;;;;;5038938;28;20060;-63
2023/04/28 00:42:12;;;;;;;11.10;8.73;;;7.60;99.90;;;;;;5045700;28;20080;-64
2023/04/28 00:44:39;;;;;;;12.80;8.88;;;7.60;99.90;;;;;;5049476;28;20076;-65
2023/04/28 00:47:05;;;;;;;12.50;9.57;;;7.50;99.90;;;;;;5045978;28;20083;-65
2023/04/28 00:49:32;;;;;;;13.25;9.55;;;7.50;99.90;;;;;;5045551;28;20551;-63
2023/04/28 00:52:02;;;;;;;11.65;8.85;;;7.50;99.90;;;;;;5045742;28;20190;-64
2023/04/28 00:54:28;;;;;;;13.95;9.27;;;7.50;99.90;;;;;;5044908;28;20067;-63
2023/04/28 00:56:53;;;;;;;13.77;9.43;;;7.50;99.90;;;;;;5038333;28;20041;-64
2023/04/28 00:59:19;;;;;;;11.77;9.35;;;7.50;99.90;;;;;;5033264;28;20467;-64
2023/04/28 01:01:45;;;;;;;15.40;9.85;;;7.50;99.90;;;;;;5041085;28;20041;-62
2023/04/28 01:04:11;;;;;;;13.57;10.00;;;7.40;99.90;;;;;;5049390;28;20411;-64
2023/04/28 01:06:37;;;;;;;13.48;9.20;;;7.40;99.90;;;;;;5029911;28;20048;-63
2023/04/28 01:09:05;;;;;;;13.00;9.43;;;7.40;99.90;;;;;;5046436;28;20467;-63
2023/04/28 01:11:30;;;;;;;13.73;9.43;;;7.30;99.90;;;;;;5030666;28;20056;-62
2023/04/28 01:13:58;;;;;;;15.05;10.18;;;7.30;99.90;;;;;;5046214;28;20059;-67
2023/04/28 01:16:25;;;;;;;12.48;9.70;;;7.30;99.90;;;;;;5045521;28;20053;-65
2023/04/28 01:18:50;;;;;;;12.48;9.82;;;7.30;99.90;;;;;;5046863;28;20056;-65
2023/04/28 01:21:27;;;;;;;15.18;9.85;;;7.30;99.90;;;;;;5046629;28;20045;-65
2023/04/28 01:23:54;;;;;;;12.77;9.23;;;7.20;99.90;;;;;;5049184;28;20446;-63
2023/04/28 01:26:20;;;;;;;13.43;9.25;;;7.30;99.90;;;;;;5048114;28;20048;-64
2023/04/28 01:28:46;;;;;;;16.70;9.65;;;7.20;99.90;;;;;;5048910;28;20048;-63
2023/04/28 01:31:11;;;;;;;12.90;9.93;;;7.20;99.90;;;;;;5045486;28;20098;-65
2023/04/28 01:33:37;;;;;;;13.40;9.15;;;7.20;99.90;;;;;;5045994;28;20041;-64
2023/04/28 01:36:03;;;;;;;11.52;8.80;;;7.20;99.90;;;;;;5048931;28;20126;-64
2023/04/28 01:38:28;;;;;;;12.60;9.15;;;7.20;99.90;;;;;;5030339;28;20081;-64
2023/04/28 01:40:55;;;;;;;13.45;8.40;;;7.20;99.90;;;;;;5045463;28;20079;-64
2023/04/28 01:43:20;;;;;;;14.48;9.27;;;7.20;99.90;;;;;;5029569;28;20480;-64
2023/04/28 01:45:46;;;;;;;13.68;10.02;;;7.20;99.90;;;;;;5045920;28;20108;-63
2023/04/28 01:48:12;;;;;;;14.65;8.98;;;7.20;99.90;;;;;;5046382;28;20047;-63
2023/04/28 01:50:37;;;;;;;14.02;9.05;;;7.10;99.90;;;;;;5046539;28;20029;-64
2023/04/28 01:53:03;;;;;;;12.32;9.45;;;7.20;99.90;;;;;;5045774;28;20036;-66
2023/04/28 01:55:28;;;;;;;10.38;8.55;;;7.20;99.90;;;;;;5047101;28;20075;-63
2023/04/28 01:57:56;;;;;;;15.10;10.05;;;7.20;99.90;;;;;;5045936;28;20431;-63
2023/04/28 02:00:22;;;;;;;10.70;8.52;;;7.20;99.90;;;;;;5030048;28;20041;-62
2023/04/28 02:02:48;;;;;;;12.00;9.10;;;7.20;99.90;;;;;;5047496;28;20036;-64
2023/04/28 02:05:14;;;;;;;16.08;8.98;;;7.20;99.90;;;;;;5051709;28;20512;-63
2023/04/28 02:07:40;;;;;;;12.15;8.63;;;7.20;99.90;;;;;;5047528;28;20040;-64
2023/04/28 02:10:06;;;;;;;11.23;9.15;;;7.20;99.90;;;;;;5046736;28;20064;-63
2023/04/28 02:12:32;;;;;;;13.20;8.90;;;7.20;99.90;;;;;;5046081;28;20041;-64
2023/04/28 02:14:58;;;;;;;14.82;9.10;;;7.20;99.90;;;;;;5047459;28;20029;-63
2023/04/28 02:17:23;;;;;;;12.15;9.02;;;7.20;99.90;;;;;;5047944;28;20107;-62
2023/04/28 02:19:56;;;;;;;12.43;9.50;;;7.20;99.90;;;;;;5045766;28;20045;-64
2023/04/28 02:22:22;;;;;;;11.82;8.30;;;7.10;99.90;;;;;;5033442;28;20431;-65
2023/04/28 02:24:48;;;;;;;11.25;8.90;;;7.20;99.90;;;;;;5033586;28;20052;-61
2023/04/28 02:27:14;;;;;;;12.88;9.07;;;7.10;99.90;;;;;;5062051;28;20045;-63
2023/04/28 02:29:40;;;;;;;12.98;8.65;;;7.20;99.90;;;;;;5050868;28;20049;-64
2023/04/28 02:32:06;;;;;;;12.88;8.88;;;7.10;99.90;;;;;;5051851;28;20055;-61
2023/04/28 02:34:33;;;;;;;13.02;9.02;;;7.10;99.90;;;;;;5051721;28;20037;-63
2023/04/28 02:36:58;;;;;;;13.52;8.88;;;7.10;99.90;;;;;;5046597;28;20075;-64
2023/04/28 02:39:25;;;;;;;14.77;9.10;;;7.10;99.90;;;;;;5038321;28;20131;-64
2023/04/28 02:41:55;;;;;;;16.75;9.30;;;7.10;99.90;;;;;;5035420;28;20053;-62
2023/04/28 02:44:21;;;;;;;13.18;8.88;;;7.10;99.90;;;;;;5046021;28;20488;-64
2023/04/28 02:46:47;;;;;;;12.68;9.73;;;7.10;99.90;;;;;;5042513;28;20040;-63
2023/04/28 02:49:13;;;;;;;11.63;8.82;;;7.10;99.90;;;;;;5036519;28;20067;-63
2023/04/28 02:51:39;;;;;;;11.48;9.27;;;7.00;99.90;;;;;;5066851;28;20060;-63
2023/04/28 02:54:04;;;;;;;12.80;9.45;;;7.10;99.90;;;;;;5051742;28;20138;-64
2023/04/28 02:56:30;;;;;;;13.60;9.68;;;7.10;99.90;;;;;;5049005;28;20077;-63
2023/04/28 02:58:56;;;;;;;13.18;9.88;;;7.10;99.90;;;;;;5051507;28;20135;-65
2023/04/28 03:01:22;;;;;;;13.13;9.45;;;7.10;99.90;;;;;;5051053;28;20072;-63
2023/04/28 03:03:48;;;;;;;11.13;8.68;;;7.10;99.90;;;;;;5051633;28;20504;-65
2023/04/28 03:06:13;;;;;;;10.85;9.18;;;7.10;99.90;;;;;;5050624;28;20049;-62
2023/04/28 03:08:39;;;;;;;12.52;9.15;;;7.10;99.90;;;;;;5049573;28;20084;-64
2023/04/28 03:11:05;;;;;;;13.07;9.15;;;7.10;99.90;;;;;;5067347;28;20076;-63
2023/04/28 03:13:30;;;;;;;12.23;8.90;;;7.10;99.90;;;;;;5050283;28;20057;-62
2023/04/28 03:15:56;;;;;;;14.07;9.60;;;7.10;99.90;;;;;;5051546;28;20071;-63
2023/04/28 03:18:22;;;;;;;12.38;9.57;;;7.10;99.90;;;;;;5034811;28;20140;-64
2023/04/28 03:20:48;;;;;;;12.13;9.73;;;7.10;99.90;;;;;;5050998;28;20439;-64
2023/04/28 03:23:14;;;;;;;12.43;9.77;;;7.00;99.90;;;;;;5052339;28;20033;-63
2023/04/28 03:25:40;;;;;;;13.35;9.70;;;7.10;99.90;;;;;;5051220;28;20047;-63
2023/04/28 03:28:06;;;;;;;11.13;9.13;;;7.10;99.90;;;;;;5031035;28;20075;-63
2023/04/28 03:30:32;;;;;;;12.13;9.40;;;7.10;99.90;;;;;;5051215;28;20048;-63
2023/04/28 03:32:57;;;;;;;12.02;9.07;;;7.10;99.90;;;;;;5031451;28;20396;-64
2023/04/28 03:35:23;;;;;;;16.38;9.90;;;7.10;99.90;;;;;;5061871;28;20506;-63
2023/04/28 03:37:49;;;;;;;13.27;9.20;;;7.10;99.90;;;;;;5050883;28;20041;-63
2023/04/28 03:40:15;;;;;;;10.60;9.07;;;7.10;99.90;;;;;;5051832;28;20061;-63
2023/04/28 03:42:40;;;;;;;13.43;9.48;;;7.10;99.90;;;;;;5046147;28;20068;-64
2023/04/28 03:45:07;;;;;;;13.50;9.63;;;7.10;99.90;;;;;;5041017;28;20373;-63
2023/04/28 03:47:33;;;;;;;14.55;9.80;;;7.10;99.90;;;;;;5049553;28;20041;-65
2023/04/28 03:49:58;;;;;;;11.80;9.23;;;7.00;99.90;;;;;;5046343;28;20471;-64
2023/04/28 03:52:25;;;;;;;13.45;9.43;;;7.10;99.90;;;;;;5047040;28;20124;-63
2023/04/28 03:54:50;;;;;;;14.43;9.95;;;7.00;99.90;;;;;;5044919;28;20109;-63
2023/04/28 03:57:16;;;;;;;13.20;9.40;;;7.00;99.90;;;;;;5049010;28;20130;-63
2023/04/28 03:59:42;;;;;;;12.52;9.35;;;7.00;99.90;;;;;;5046331;28;20073;-63
2023/04/28 04:02:07;;;;;;;13.27;9.73;;;7.00;99.90;;;;;;5044634;28;20076;-63
2023/04/28 04:04:33;;;;;;;13.25;9.70;;;7.00;99.90;;;;;;5043492;28;20220;-65
2023/04/28 04:06:59;;;;;;;13.48;9.85;;;7.00;99.90;;;;;;5039732;28;20516;-63
2023/04/28 04:09:25;;;;;;;13.15;10.18;;;7.00;99.90;;;;;;5048613;28;20060;-64
2023/04/28 04:11:50;;;;;;;12.55;9.40;;;7.00;99.90;;;;;;5037857;28;20080;-65
2023/04/28 04:14:16;;;;;;;12.82;9.95;;;7.00;99.90;;;;;;5049947;28;20368;-63
2023/04/28 04:16:42;;;;;;;16.13;10.35;;;7.00;99.90;;;;;;5034541;28;20037;-64
2023/04/28 04:19:08;;;;;;;13.35;9.48;;;7.00;99.90;;;;;;5061042;28;20042;-64
2023/04/28 04:21:33;;;;;;;13.80;10.88;;;7.00;99.90;;;;;;5041799;28;20029;-64
2023/04/28 04:24:00;;;;;;;13.43;9.63;;;7.00;99.90;;;;;;5047352;28;20037;-63
2023/04/28 04:26:25;;;;;;;14.48;10.82;;;7.00;99.90;;;;;;5046279;28;20054;-63
2023/04/28 04:28:51;;;;;;;15.77;9.93;;;7.00;99.90;;;;;;5046891;28;20170;-63
2023/04/28 04:31:18;;;;;;;15.50;10.70;;;7.00;99.90;;;;;;5041056;28;20029;-63
2023/04/28 04:33:44;;;;;;;16.55;9.90;;;6.90;99.90;;;;;;5046834;28;20037;-63
2023/04/28 04:36:10;;;;;;;14.65;10.15;;;7.00;99.90;;;;;;5046498;28;20049;-63
2023/04/28 04:38:35;;;;;;;13.73;9.52;;;7.00;99.90;;;;;;5038210;28;20068;-66
2023/04/28 04:41:01;;;;;;;12.52;9.73;;;7.00;99.90;;;;;;5037723;28;20033;-63
2023/04/28 04:43:27;;;;;;;15.30;10.13;;;7.00;99.90;;;;;;5037097;28;20053;-64
2023/04/28 04:45:53;;;;;;;13.93;10.07;;;7.00;99.90;;;;;;5038914;28;20094;-64
2023/04/28 04:48:19;;;;;;;16.77;10.07;;;7.00;99.90;;;;;;5039585;28;20407;-65
2023/04/28 04:50:45;;;;;;;13.23;10.00;;;7.10;99.90;;;;;;5036826;28;20045;-63
2023/04/28 04:53:11;;;;;;;13.13;9.13;;;7.10;99.90;;;;;;5048249;28;20060;-63
2023/04/28 04:55:37;;;;;;;13.80;10.05;;;7.10;99.90;;;;;;5047344;28;20471;-63
2023/04/28 04:58:03;;;;;;;13.50;9.85;;;7.10;99.90;;;;;;5049431;28;20037;-64
2023/04/28 05:00:29;;;;;;;16.17;9.90;;;7.10;99.90;;;;;;5046330;28;21133;-64
2023/04/28 05:02:54;;;;;;;16.73;9.55;;;7.20;99.90;;;;;;5043723;28;20047;-64
2023/04/28 05:05:20;;;;;;;14.75;9.65;;;7.20;99.90;;;;;;5041922;28;20213;-62
2023/04/28 05:07:46;;;;;;;13.80;10.18;;;7.20;99.90;;;;;;5043463;28;20041;-64
2023/04/28 05:10:11;;;;;;;14.13;10.82;;;7.20;99.90;;;;;;5047440;28;20507;-63
2023/04/28 05:12:40;;;;;;;16.63;10.18;;;7.30;99.90;;;;;;5043401;28;20111;-66
2023/04/28 05:15:06;;;;;;;12.20;9.15;;;7.30;99.90;;;;;;5061934;28;20789;-64
2023/04/28 05:17:33;;;;;;;15.85;9.95;;;7.30;99.90;;;;;;5046515;28;20178;-62
2023/04/28 05:19:59;;;;;;;13.52;9.77;;;7.30;99.90;;;;;;5062042;28;20032;-65
2023/04/28 05:22:25;;;;;;;12.50;9.20;;;7.30;99.90;;;;;;5049427;28;20396;-64
2023/04/28 05:24:51;;;;;;;13.68;9.73;;;7.30;99.90;;;;;;5044821;28;20037;-64
2023/04/28 05:27:17;;;;;;;14.65;10.00;;;7.30;99.90;;;;;;5047170;28;20542;-63
2023/04/28 05:29:43;;;;;;;13.30;9.80;;;7.30;99.90;;;;;;5045691;28;20040;-63
2023/04/28 05:32:09;;;;;;;13.10;8.32;;;7.30;99.90;;;;;;5048720;28;20063;-62
2023/04/28 05:34:34;;;;;;;14.20;9.85;;;7.30;99.90;;;;;;5043279;28;20059;-63
2023/04/28 05:37:00;;;;;;;12.82;9.05;;;7.30;99.90;;;;;;5043140;28;20053;-63
2023/04/28 05:39:26;;;;;;;14.82;9.35;;;7.40;99.90;;;;;;5029962;28;20061;-64
2023/04/28 05:41:51;;;;;;;15.77;8.52;;;7.40;99.90;;;;;;5047931;28;20045;-64
2023/04/28 05:44:17;;;;;;;14.32;9.60;;;7.40;99.90;;;;;;5046270;28;20049;-63
2023/04/28 05:46:42;;;;;;;12.35;8.82;;;7.50;99.90;;;;;;5031498;28;20123;-62
2023/04/28 05:49:09;;;;;;;10.85;8.77;;;7.50;99.90;;;;;;5046192;28;20124;-66
2023/04/28 05:51:35;;;;;;;14.68;9.50;;;7.50;99.90;;;;;;5048164;28;20045;-65
2023/04/28 05:54:00;;;;;;;11.98;8.30;;;7.50;99.90;;;;;;5047699;28;20053;-64
2023/04/28 05:56:26;;;;;;;10.38;8.45;;;7.50;99.90;;;;;;5046930;28;20129;-63
2023/04/28 05:58:52;;;;;;;11.20;8.18;;;7.50;99.90;;;;;;5045943;28;20140;-64
2023/04/28 06:01:17;;;;;;;14.23;8.35;;;7.50;99.90;;;;;;5033522;28;20096;-64
2023/04/28 06:03:44;;;;;;;10.38;8.05;;;7.60;99.90;;;;;;5050916;28;20387;-63
2023/04/28 06:06:10;;;;;;;12.40;9.05;;;7.60;99.90;;;;;;5050744;28;20048;-63
2023/04/28 06:08:36;;;;;;;10.52;7.57;;;7.50;99.90;;;;;;5053350;28;20480;-66
2023/04/28 06:11:02;;;;;;;11.45;8.25;;;7.60;99.90;;;;;;5047560;28;20033;-63
2023/04/28 06:13:27;;;;;;;12.90;8.68;;;7.60;99.90;;;;;;5051316;28;20041;-63
2023/04/28 06:15:53;;;;;;;14.55;8.13;;;7.60;99.90;;;;;;5049335;28;20476;-64
2023/04/28 06:18:19;;;;;;;11.38;7.97;;;7.70;99.90;;;;;;5050315;28;20048;-63
2023/04/28 06:20:45;;;;;;;15.82;8.80;;;7.70;99.90;;;;;;5050587;28;20025;-63
2023/04/28 06:23:10;;;;;;;12.50;8.82;;;7.70;99.90;;;;;;5051483;28;20056;-64
2023/04/28 06:25:36;;;;;;;9.82;7.50;;;7.70;99.90;;;;;;5050032;28;20572;-63
2023/04/28 06:28:02;;;;;;;15.20;8.43;;;7.70;99.90;;;;;;5050124;28;20514;-63
2023/04/28 06:30:28;;;;;;;10.75;8.77;;;7.80;99.90;;;;;;5047857;28;20476;-64
2023/04/28 06:32:56;;;;;;;12.82;9.02;;;7.80;99.90;;;;;;5050271;28;20080;-61
2023/04/28 06:35:22;;;;;;;12.73;8.50;;;7.90;99.90;;;;;;5051764;28;20045;-63
2023/04/28 06:37:48;;;;;;;13.88;8.90;;;7.90;99.90;;;;;;5051594;28;20476;-62
2023/04/28 06:40:13;;;;;;;11.50;8.60;;;7.90;99.90;;;;;;5051110;28;20518;-63
2023/04/28 06:42:39;;;;;;;14.38;9.02;;;7.90;99.90;;;;;;5051224;28;20049;-63
2023/04/28 06:45:05;;;;;;;10.30;8.00;;;8.00;99.90;;;;;;5067847;28;20083;-63
2023/04/28 06:47:31;;;;;;;13.73;7.45;;;8.00;99.90;;;;;;5051632;28;20452;-63
2023/04/28 06:49:57;;;;;;;11.40;8.02;;;8.10;99.90;;;;;;5031958;28;20127;-62
2023/04/28 06:52:23;;;;;;;11.55;7.93;;;8.20;99.90;;;;;;5050490;28;20033;-63
2023/04/28 06:54:50;;;;;;;11.05;8.10;;;8.30;99.90;;;;;;5051727;28;20040;-62
2023/04/28 06:57:16;;;;;;;8.93;7.88;;;8.40;99.90;;;;;;5050949;28;20040;-62
2023/04/28 06:59:43;;;;;;;10.40;7.60;;;8.50;99.90;;;;;;5050494;28;20033;-65
2023/04/28 07:02:09;;;;;;;12.95;7.60;;;8.50;99.90;;;;;;5048416;28;20045;-63
2023/04/28 07:04:35;;;;;;;12.15;7.75;;;8.50;99.90;;;;;;5031765;28;20124;-66
2023/04/28 07:07:01;;;;;;;11.93;7.80;;;8.60;99.90;;;;;;5032890;28;20039;-63
2023/04/28 07:09:27;;;;;;;10.68;7.80;;;8.60;99.90;;;;;;5049163;28;20037;-63
2023/04/28 07:11:53;;;;;;;9.82;7.35;;;8.60;99.90;;;;;;5049641;28;20049;-64
2023/04/28 07:14:18;;;;;;;12.20;7.10;;;8.60;99.90;;;;;;5050828;28;20498;-62
2023/04/28 07:16:44;;;;;;;13.25;7.82;;;8.60;99.90;;;;;;5050556;28;20063;-64
2023/04/28 07:19:10;;;;;;;10.90;7.50;;;8.80;99.90;;;;;;5049437;28;20041;-64
2023/04/28 07:21:36;;;;;;;11.73;7.45;;;8.90;99.90;;;;;;5050154;28;20115;-64
2023/04/28 07:24:01;;;;;;;10.38;7.68;;;8.90;99.90;;;;;;5049901;28;20522;-63
2023/04/28 07:26:27;;;;;;;9.15;7.30;;;9.00;99.90;;;;;;5049231;28;20041;-64
2023/04/28 07:28:53;;;;;;;11.88;7.55;;;9.10;99.90;;;;;;5050310;28;20040;-64
2023/04/28 07:31:19;;;;;;;10.82;7.53;;;9.20;99.90;;;;;;5047563;28;20496;-65
2023/04/28 07:33:45;;;;;;;10.88;7.88;;;9.30;99.90;;;;;;5049413;28;20037;-63
2023/04/28 07:36:10;;;;;;;9.80;7.55;;;9.50;99.90;;;;;;5049432;28;20053;-64
2023/04/28 07:38:36;;;;;;;10.02;6.45;;;9.60;99.90;;;;;;5049481;28;20049;-63
2023/04/28 07:41:03;;;;;;;10.20;7.53;;;9.60;99.90;;;;;;5049336;28;20072;-64
2023/04/28 07:43:29;;;;;;;10.65;7.70;;;9.70;99.90;;;;;;5048420;28;20078;-64
2023/04/28 07:45:55;;;;;;;14.18;7.47;;;9.70;99.90;;;;;;5049070;28;20102;-64
2023/04/28 07:48:21;;;;;;;10.70;7.82;;;9.60;99.90;;;;;;5032653;28;20053;-63
2023/04/28 07:50:47;;;;;;;11.98;7.60;;;9.60;99.90;;;;;;5052025;28;20037;-63
2023/04/28 07:53:12;;;;;;;13.23;8.43;;;9.60;99.90;;;;;;5066526;28;20040;-65
2023/04/28 07:55:40;;;;;;;12.45;8.35;;;9.50;99.90;;;;;;5050525;28;20094;-63
2023/04/28 07:58:07;;;;;;;11.15;7.07;;;9.60;99.90;;;;;;5049152;28;20049;-62
2023/04/28 08:00:32;;;;;;;8.77;7.10;;;9.70;99.90;;;;;;5049981;28;20045;-62
2023/04/28 08:02:58;;;;;;;11.57;7.32;;;9.80;99.90;;;;;;5050824;28;20045;-63
2023/04/28 08:05:24;;;;;;;12.38;7.07;;;9.80;99.90;;;;;;5049284;28;20052;-62
2023/04/28 08:07:50;;;;;;;11.57;7.13;;;9.90;99.90;;;;;;5050199;28;20041;-63
2023/04/28 08:10:15;;;;;;;11.15;7.10;;;9.90;99.90;;;;;;5050256;28;20037;-64
2023/04/28 08:12:41;;;;;;;10.10;7.60;;;9.90;99.90;;;;;;5028559;28;20423;-62
2023/04/28 08:15:08;;;;;;;12.13;7.40;;;9.90;99.90;;;;;;5048647;28;20434;-65
2023/04/28 08:17:34;;;;;;;8.73;7.22;;;9.90;99.90;;;;;;5048622;28;20040;-63
2023/04/28 08:20:00;;;;;;;10.05;7.22;;;10.00;99.90;;;;;;5049647;28;20383;-64
2023/04/28 08:22:25;;;;;;;10.88;7.68;;;10.00;99.90;;;;;;5049806;28;20056;-63
2023/04/28 08:24:51;;;;;;;9.68;7.47;;;10.00;99.90;;;;;;5049287;28;20033;-63
2023/04/28 08:27:17;;;;;;;8.70;7.20;;;10.10;99.90;;;;;;5046136;28;20535;-63
2023/04/28 08:29:43;;;;;;;10.50;7.35;;;10.10;99.90;;;;;;5048523;28;20498;-64
2023/04/28 08:32:08;;;;;;;8.93;7.57;;;10.20;99.90;;;;;;5030142;28;20049;-62
2023/04/28 08:34:34;;;;;;;10.77;7.85;;;10.20;99.90;;;;;;5048257;28;20041;-64
2023/04/28 08:37:00;;;;;;;10.68;7.90;;;10.20;99.90;;;;;;5049820;28;20055;-62
2023/04/28 08:39:26;;;;;;;11.57;7.95;;;10.40;99.90;;;;;;5049848;28;20041;-62
2023/04/28 08:41:52;;;;;;;11.70;7.18;;;10.50;99.90;;;;;;5048755;28;20059;-65
2023/04/28 08:44:18;;;;;;;12.10;7.40;;;10.80;99.90;;;;;;5046129;28;20078;-65
2023/04/28 08:46:45;;;;;;;9.25;7.43;;;10.90;99.90;;;;;;5048305;28;20403;-64
2023/04/28 08:49:17;;;;;;;9.15;6.80;;;11.20;99.90;;;;;;5047565;28;20065;-64
2023/04/28 08:51:53;;;;;;;10.13;7.10;;;11.50;99.90;;;;;;5043289;28;20499;-65
2023/04/28 08:54:20;;;;;;;13.93;7.82;;;11.80;99.90;;;;;;5027558;28;20056;-64
2023/04/28 08:56:47;;;;;;;8.68;7.10;;;12.00;99.90;;;;;;5046725;28;20545;-64
2023/04/28 08:59:13;;;;;;;10.32;7.80;;;12.00;99.90;;;;;;5031541;28;20045;-64
2023/04/28 09:01:39;;;;;;;10.25;7.25;;;11.90;99.90;;;;;;5048427;28;20037;-64
2023/04/28 09:04:04;;;;;;;8.75;7.25;;;11.90;99.90;;;;;;5064512;28;20048;-64
2023/04/28 09:06:33;;;;;;;10.48;7.78;;;11.90;99.90;;;;;;5047128;28;20043;-63
2023/04/28 09:09:22;;;;;;;10.02;7.13;;;11.90;99.90;;;;;;5047437;28;20059;-63
2023/04/28 09:11:54;;;;;;;11.45;7.15;;;12.00;99.90;;;;;;5046214;28;20049;-63
2023/04/28 09:14:24;;;;;;;10.77;8.02;;;12.10;99.90;;;;;;5049421;28;20040;-62
2023/04/28 09:16:50;;;;;;;9.77;7.45;;;12.30;99.90;;;;;;5045498;28;20056;-65
2023/04/28 09:19:16;;;;;;;12.57;7.00;;;12.50;99.90;;;;;;5047997;28;20037;-64
2023/04/28 09:21:47;;;;;;;11.32;7.57;;;12.50;99.90;;;;;;5047439;28;20048;-63
2023/04/28 09:24:25;;;;;;;8.07;7.18;;;12.70;99.90;;;;;;5064320;28;20041;-62
2023/04/28 09:26:50;;;;;;;12.48;7.20;;;12.70;99.90;;;;;;5046399;28;20094;-63
2023/04/28 09:29:16;;;;;;;10.05;7.65;;;12.90;99.90;;;;;;5031022;28;20136;-64
2023/04/28 09:31:42;;;;;;;10.27;7.43;;;13.00;99.90;;;;;;5047535;28;20037;-62
2023/04/28 09:34:08;;;;;;;12.13;7.40;;;13.00;99.90;;;;;;5045833;28;20048;-64
2023/04/28 09:36:34;;;;;;;9.75;6.80;;;13.00;99.90;;;;;;5046384;28;20511;-62
2023/04/28 09:39:00;;;;;;;8.95;7.43;;;13.10;99.90;;;;;;5046353;28;20053;-65
2023/04/28 09:41:39;;;;;;;12.25;8.32;;;13.10;99.90;;;;;;5045728;28;20057;-64
2023/04/28 09:44:13;;;;;;;9.43;7.47;;;13.20;99.90;;;;;;5045000;28;20095;-63
2023/04/28 09:46:39;;;;;;;8.68;6.68;;;13.40;99.90;;;;;;5045226;28;20050;-63
2023/04/28 09:49:04;;;;;;;11.02;7.80;;;13.60;99.90;;;;;;5047027;28;20040;-63
2023/04/28 09:51:31;;;;;;;8.40;7.00;;;13.80;99.90;;;;;;5044448;28;20299;-64
2023/04/28 09:53:59;;;;;;;8.13;6.55;;;13.90;99.90;;;;;;5045979;28;20057;-63
2023/04/28 09:56:30;;;;;;;10.85;7.60;;;14.00;99.90;;;;;;5045979;28;20056;-64
2023/04/28 09:58:59;;;;;;;7.93;6.47;;;14.10;99.90;;;;;;5046484;28;20633;-63
2023/04/28 10:01:30;;;;;;;12.07;7.90;;;14.20;99.90;;;;;;5046930;28;20040;-63
2023/04/28 10:03:58;;;;;;;10.30;6.93;;;14.20;99.90;;;;;;5045803;28;20449;-64
2023/04/28 10:06:26;;;;;;;8.98;7.05;;;14.20;99.90;;;;;;5044719;28;20071;-62
2023/04/28 10:08:52;;;;;;;9.65;6.75;;;14.20;99.90;;;;;;5045896;28;20053;-64
2023/04/28 10:11:19;;;;;;;10.00;7.28;;;14.30;99.90;;;;;;5047531;28;20072;-62
2023/04/28 10:13:45;;;;;;;8.40;7.20;;;14.50;99.90;;;;;;5046982;28;20041;-63
2023/04/28 10:16:13;;;;;;;9.55;7.07;;;14.70;99.90;;;;;;5046684;28;20047;-65
2023/04/28 10:18:39;;;;;;;7.95;6.28;;;15.00;99.90;;;;;;5045315;28;20493;-63
2023/04/28 10:21:06;;;;;;;9.02;6.95;;;15.20;99.90;;;;;;5048342;28;20072;-63
2023/04/28 10:23:58;;;;;;;9.30;6.95;;;15.40;99.90;;;;;;5049194;28;20373;-64
2023/04/28 10:26:54;;;;;;;8.32;7.05;;;15.50;99.90;;;;;;5030811;28;20160;-64
2023/04/28 10:29:24;;;;;;;12.05;6.80;;;15.50;99.90;;;;;;5047984;28;20128;-64
2023/04/28 10:32:13;;;;;;;9.68;7.43;;;15.90;99.90;;;;;;5048416;28;20056;-63
2023/04/28 10:34:39;;;;;;;7.82;6.72;;;15.90;99.90;;;;;;5046668;28;20124;-63
2023/04/28 10:37:05;;;;;;;10.13;6.82;;;15.80;99.90;;;;;;5048548;28;20764;-63
2023/04/28 10:39:30;;;;;;;9.30;6.90;;;15.60;99.90;;;;;;5045876;28;20124;-65
2023/04/28 10:41:56;;;;;;;9.35;7.20;;;15.40;99.90;;;;;;5047298;28;20073;-64
2023/04/28 10:44:31;;;;;;;9.55;6.93;;;15.40;99.90;;;;;;5047069;28;20128;-62
2023/04/28 10:47:05;;;;;;;10.23;6.82;;;15.40;99.90;;;;;;5045481;28;20037;-62
2023/04/28 10:50:02;;;;;;;7.60;6.72;;;15.40;99.90;;;;;;5051927;28;20045;-62
2023/04/28 10:52:40;;;;;;;7.22;6.50;;;15.30;99.90;;;;;;5050670;28;20037;-62
2023/04/28 10:55:38;;;;;;;8.48;6.68;;;15.10;99.90;;;;;;5046646;28;20621;-65
2023/04/28 10:58:17;;;;;;;7.57;6.70;;;15.00;99.90;;;;;;5049656;28;20052;-63
2023/04/28 11:00:47;;;;;;;7.78;6.90;;;14.90;99.90;;;;;;5051535;28;20036;-67
2023/04/28 11:03:50;;;;;;;10.43;6.80;;;14.80;99.90;;;;;;5049628;28;20047;-63
2023/04/28 11:06:24;;;;;;;9.27;7.03;;;14.70;99.90;;;;;;5041832;28;20048;-64
2023/04/28 11:08:51;;;;;;;11.13;7.13;;;14.70;99.90;;;;;;5045110;28;20058;-62
2023/04/28 11:11:23;;;;;;;12.80;7.80;;;14.60;99.90;;;;;;5048321;28;20049;-63
2023/04/28 11:13:49;;;;;;;13.10;8.07;;;14.50;99.90;;;;;;5032697;28;20045;-67
2023/04/28 11:16:17;;;;;;;12.73;8.18;;;14.40;99.90;;;;;;5049342;28;20067;-64
2023/04/28 11:18:58;;;;;;;11.05;7.78;;;14.30;99.90;;;;;;5046003;28;20095;-63
2023/04/28 11:21:27;;;;;;;10.50;7.53;;;14.20;99.90;;;;;;5046101;28;20128;-64
2023/04/28 11:23:52;;;;;;;11.85;8.52;;;14.00;99.90;;;;;;5048998;28;20491;-65
2023/04/28 11:26:18;;;;;;;13.38;8.77;;;14.00;99.90;;;;;;5049025;28;20111;-63
2023/04/28 11:28:55;;;;;;;12.13;8.18;;;13.90;99.90;;;;;;5048129;28;20084;-67
2023/04/28 11:31:23;;;;;;;12.73;8.80;;;13.90;99.90;;;;;;5050207;28;20128;-64
2023/04/28 11:34:18;;;;;;;9.15;8.15;;;13.80;99.90;;;;;;5049251;28;20037;-65
2023/04/28 11:36:44;;;;;;;12.05;8.23;;;13.70;99.90;;;;;;4989969;28;20049;-63
2023/04/28 11:39:11;;;;;;;10.63;7.38;;;13.60;99.90;;;;;;5005481;28;20072;-66
2023/04/28 11:41:42;;;;;;;10.27;7.90;;;13.70;99.90;;;;;;4987241;28;20184;-64
2023/04/28 11:44:11;;;;;;;11.45;7.88;;;13.70;99.90;;;;;;5006585;28;20102;-63
2023/04/28 11:46:50;;;;;;;11.20;8.35;;;13.70;99.90;;;;;;4987343;28;20054;-66
2023/04/28 11:49:16;;;;;;;11.35;8.98;;;13.70;99.90;;;;;;4988395;28;20073;-67
2023/04/28 11:51:44;;;;;;;10.93;8.95;;;13.60;99.90;;;;;;5007051;28;20428;-68
2023/04/28 11:54:10;;;;;;;15.48;10.45;;;13.60;99.90;;;;;;5005868;28;20053;-65
2023/04/28 11:56:43;;;;;;;13.35;9.95;;;13.60;99.90;;;;;;4989881;28;20049;-64
2023/04/28 11:59:11;;;;;;;14.75;11.63;;;13.60;99.90;;;;;;4989337;28;20125;-66
2023/04/28 12:01:47;;;;;;;16.75;12.50;;;13.70;99.90;;;;;;4992376;28;20042;-64
2023/04/28 12:04:13;;;;;;;19.08;13.27;;;13.70;99.90;;;;;;4991736;28;20432;-66
2023/04/28 12:06:40;;;;;;;16.77;12.60;;;13.60;99.90;;;;;;4992245;28;20100;-63
2023/04/28 12:09:23;;;;;;;17.83;14.38;;;13.60;99.90;;;;;;4992552;28;20587;-64
2023/04/28 12:11:54;;;;;;;17.33;14.00;;;13.60;99.90;;;;;;4990167;28;20073;-64
2023/04/28 12:14:20;;;;;;;20.52;16.10;;;13.60;99.90;;;;;;5046072;28;20052;-65
2023/04/28 12:16:47;;;;;;;20.60;16.63;;;13.60;99.90;;;;;;5048708;28;20037;-66
2023/04/28 12:19:14;;;;;;;21.70;17.13;;;13.60;99.90;;;;;;5047679;28;20501;-63
2023/04/28 12:21:41;;;;;;;21.17;18.35;;;13.50;99.90;;;;;;5047320;28;20068;-64
2023/04/28 12:24:14;;;;;;;19.50;17.40;;;13.50;99.90;;;;;;5047618;28;20044;-62
2023/04/28 12:26:41;;;;;;;21.50;18.40;;;13.40;99.90;;;;;;5031058;28;20080;-63
2023/04/28 12:29:09;;;;;;;24.60;19.70;;;13.30;99.90;;;;;;5047237;28;20037;-62
2023/04/28 12:31:50;;;;;;;24.15;19.63;;;13.30;99.90;;;;;;5062635;28;20053;-63
2023/04/28 12:34:16;;;;;;;23.67;19.95;;;13.30;99.90;;;;;;5044418;28;20072;-65
2023/04/28 12:36:45;;;;;;;27.55;21.27;;;13.20;99.90;;;;;;5066837;28;20158;-67
2023/04/28 12:39:15;;;;;;;26.13;20.50;;;13.20;99.90;;;;;;5048149;28;20055;-63
2023/04/28 12:41:41;;;;;;;24.95;22.35;;;13.10;99.90;;;;;;5047560;28;20053;-66
2023/04/28 12:44:07;;;;;;;26.83;23.20;;;13.10;99.90;;;;;;5047348;28;20045;-66